Springbok Airport

Airport
ICAO code: 
FASB
IATA Code: 
SBU
Summary
ICAO Region: 
AFI
Territory: 
Location: 
, Northern Cape
Serving: 
Springbok
Elevation: 
2690 ft
Coordinates: 
Aerial View: 
29° 41' 21.599" S, 17° 56' 22.6" E
Metar
Observation
FASB 031342Z AUTO 25006KT //// // ////// 25/08 Q1013
Station
Springbok
Date/Time
2021-12-03 13:42:00
Wind direction
250°
Wind speed
06 kts
Lowest cloud amount
n/a
Temperature
25°C
Dew point
8°C
Humidity
33%
QNH
1013 hPa
Weather condition
n/a

Runways

Designator Length Width Surface Rops
10/28 1589 20 ASP No/No
Airport map: 
Aerial View: 

SKYbrary Partners:

Safety knowledge contributed by: